sensor_id;sensor_type;location;lat;lon;timestamp;pressure;altitude;pressure_sealevel;temperature;humidity
10060;BME280;5069;49.306;8.636;2024-03-07T00:00:14;101214.91;;;5.52;100.00
10060;BME280;5069;49.306;8.636;2024-03-07T00:03:20;101217.50;;;5.55;100.00
10060;BME280;5069;49.306;8.636;2024-03-07T00:06:21;101222.72;;;5.48;100.00
10060;BME280;5069;49.306;8.636;2024-03-07T00:09:23;101220.13;;;5.45;100.00
10060;BME280;5069;49.306;8.636;2024-03-07T00:12:25;101223.59;;;5.34;100.00
10060;BME280;5069;49.306;8.636;2024-03-07T00:15:28;101225.31;;;5.26;100.00
10060;BME280;5069;49.306;8.636;2024-03-07T00:18:31;101225.28;;;5.13;100.00
10060;BME280;5069;49.306;8.636;2024-03-07T00:21:33;101227.03;;;5.14;100.00
10060;BME280;5069;49.306;8.636;2024-03-07T00:24:34;101234.00;;;5.13;100.00
10060;BME280;5069;49.306;8.636;2024-03-07T00:27:37;101238.34;;;5.08;100.00
10060;BME280;5069;49.306;8.636;2024-03-07T00:30:39;101232.28;;;5.15;100.00
10060;BME280;5069;49.306;8.636;2024-03-07T00:33:41;101232.31;;;5.27;100.00
10060;BME280;5069;49.306;8.636;2024-03-07T00:37:03;101234.03;;;5.31;100.00
10060;BME280;5069;49.306;8.636;2024-03-07T00:40:06;101225.34;;;5.38;100.00
10060;BME280;5069;49.306;8.636;2024-03-07T00:43:07;101225.31;;;5.31;100.00
10060;BME280;5069;49.306;8.636;2024-03-07T00:46:10;101222.72;;;5.26;100.00
10060;BME280;5069;49.306;8.636;2024-03-07T00:49:12;101214.88;;;5.28;100.00
10060;BME280;5069;49.306;8.636;2024-03-07T00:52:14;101216.63;;;5.18;100.00
10060;BME280;5069;49.306;8.636;2024-03-07T00:55:16;101221.81;;;5.20;100.00
10060;BME280;5069;49.306;8.636;2024-03-07T00:58:19;101220.09;;;5.23;100.00
10060;BME280;5069;49.306;8.636;2024-03-07T01:01:21;101220.09;;;5.25;100.00
10060;BME280;5069;49.306;8.636;2024-03-07T01:04:23;101220.97;;;5.24;100.00
10060;BME280;5069;49.306;8.636;2024-03-07T01:07:24;101217.47;;;5.26;100.00
10060;BME280;5069;49.306;8.636;2024-03-07T01:10:26;101213.97;;;5.15;100.00
10060;BME280;5069;49.306;8.636;2024-03-07T01:13:27;101216.59;;;5.20;100.00
10060;BME280;5069;49.306;8.636;2024-03-07T01:16:29;101215.72;;;5.21;100.00
10060;BME280;5069;49.306;8.636;2024-03-07T01:19:30;101210.50;;;5.21;100.00
10060;BME280;5069;49.306;8.636;2024-03-07T01:22:32;101213.09;;;5.19;100.00
10060;BME280;5069;49.306;8.636;2024-03-07T01:25:34;101214.88;;;5.17;100.00
10060;BME280;5069;49.306;8.636;2024-03-07T01:28:35;101207.00;;;5.10;100.00
10060;BME280;5069;49.306;8.636;2024-03-07T01:31:37;101208.75;;;5.11;100.00
10060;BME280;5069;49.306;8.636;2024-03-07T01:34:39;101202.66;;;5.16;100.00
10060;BME280;5069;49.306;8.636;2024-03-07T01:37:40;101209.63;;;5.17;100.00
10060;BME280;5069;49.306;8.636;2024-03-07T01:40:43;101207.03;;;5.17;100.00
10060;BME280;5069;49.306;8.636;2024-03-07T01:43:45;101204.41;;;5.17;100.00
10060;BME280;5069;49.306;8.636;2024-03-07T01:46:47;101201.81;;;5.17;100.00
10060;BME280;5069;49.306;8.636;2024-03-07T01:49:52;101201.81;;;5.22;100.00
10060;BME280;5069;49.306;8.636;2024-03-07T01:52:53;101204.41;;;5.26;100.00
10060;BME280;5069;49.306;8.636;2024-03-07T01:55:58;101197.44;;;5.31;100.00
10060;BME280;5069;49.306;8.636;2024-03-07T01:59:02;101200.94;;;5.21;100.00
10060;BME280;5069;49.306;8.636;2024-03-07T02:02:06;101195.69;;;5.12;100.00
10060;BME280;5069;49.306;8.636;2024-03-07T02:05:08;101193.06;;;5.06;100.00
10060;BME280;5069;49.306;8.636;2024-03-07T02:08:09;101189.56;;;5.09;100.00
10060;BME280;5069;49.306;8.636;2024-03-07T02:11:11;101183.47;;;5.05;100.00
10060;BME280;5069;49.306;8.636;2024-03-07T02:14:13;101182.59;;;5.09;100.00
10060;BME280;5069;49.306;8.636;2024-03-07T02:17:15;101183.47;;;5.05;100.00
10060;BME280;5069;49.306;8.636;2024-03-07T02:20:17;101176.50;;;5.07;100.00
10060;BME280;5069;49.306;8.636;2024-03-07T02:23:18;101179.97;;;5.03;100.00
10060;BME280;5069;49.306;8.636;2024-03-07T02:26:20;101179.13;;;5.06;100.00
10060;BME280;5069;49.306;8.636;2024-03-07T02:29:21;101173.03;;;5.01;100.00
10060;BME280;5069;49.306;8.636;2024-03-07T02:32:23;101167.78;;;5.04;100.00
10060;BME280;5069;49.306;8.636;2024-03-07T02:35:25;101162.56;;;4.91;100.00
10060;BME280;5069;49.306;8.636;2024-03-07T02:38:27;101159.09;;;4.94;100.00
10060;BME280;5069;49.306;8.636;2024-03-07T02:41:28;101161.72;;;5.00;100.00
10060;BME280;5069;49.306;8.636;2024-03-07T02:44:30;101164.31;;;5.00;100.00
10060;BME280;5069;49.306;8.636;2024-03-07T02:47:33;101152.09;;;4.97;100.00
10060;BME280;5069;49.306;8.636;2024-03-07T02:50:35;101151.25;;;5.00;100.00
10060;BME280;5069;49.306;8.636;2024-03-07T02:53:38;101139.91;;;4.89;100.00
10060;BME280;5069;49.306;8.636;2024-03-07T02:56:40;101145.16;;;4.89;100.00
10060;BME280;5069;49.306;8.636;2024-03-07T02:59:42;101142.53;;;4.93;100.00
10060;BME280;5069;49.306;8.636;2024-03-07T03:02:43;101149.50;;;4.91;100.00
10060;BME280;5069;49.306;8.636;2024-03-07T03:05:45;101136.41;;;4.75;100.00
10060;BME280;5069;49.306;8.636;2024-03-07T03:08:47;101143.34;;;4.70;100.00
10060;BME280;5069;49.306;8.636;2024-03-07T03:11:49;101136.34;;;4.53;100.00
10060;BME280;5069;49.306;8.636;2024-03-07T03:14:51;101137.22;;;4.49;100.00
10060;BME280;5069;49.306;8.636;2024-03-07T03:17:54;101138.09;;;4.57;100.00
10060;BME280;5069;49.306;8.636;2024-03-07T03:20:56;101139.84;;;4.62;100.00
10060;BME280;5069;49.306;8.636;2024-03-07T03:23:58;101138.09;;;4.54;100.00
10060;BME280;5069;49.306;8.636;2024-03-07T03:26:59;101132.00;;;4.54;100.00
10060;BME280;5069;49.306;8.636;2024-03-07T03:30:01;101132.84;;;4.51;100.00
10060;BME280;5069;49.306;8.636;2024-03-07T03:33:03;101133.75;;;4.55;100.00
10060;BME280;5069;49.306;8.636;2024-03-07T03:36:05;101132.03;;;4.55;100.00
10060;BME280;5069;49.306;8.636;2024-03-07T03:39:06;101128.53;;;4.63;100.00
10060;BME280;5069;49.306;8.636;2024-03-07T03:42:08;101131.16;;;4.69;100.00
10060;BME280;5069;49.306;8.636;2024-03-07T03:45:10;101127.69;;;4.76;100.00
10060;BME280;5069;49.306;8.636;2024-03-07T03:48:15;101126.84;;;4.78;100.00
10060;BME280;5069;49.306;8.636;2024-03-07T03:51:17;101137.28;;;4.71;100.00
10060;BME280;5069;49.306;8.636;2024-03-07T03:54:19;101125.06;;;4.65;100.00
10060;BME280;5069;49.306;8.636;2024-03-07T03:57:21;101129.41;;;4.62;100.00
10060;BME280;5069;49.306;8.636;2024-03-07T04:00:23;101130.25;;;4.47;100.00
10060;BME280;5069;49.306;8.636;2024-03-07T04:03:25;101134.59;;;4.43;100.00
10060;BME280;5069;49.306;8.636;2024-03-07T04:06:26;101136.34;;;4.50;100.00
10060;BME280;5069;49.306;8.636;2024-03-07T04:09:28;101125.91;;;4.47;100.00
10060;BME280;5069;49.306;8.636;2024-03-07T04:12:30;101119.81;;;4.53;100.00
10060;BME280;5069;49.306;8.636;2024-03-07T04:15:31;101120.66;;;4.44;100.00
10060;BME280;5069;49.306;8.636;2024-03-07T04:18:37;101111.97;;;4.47;100.00
10060;BME280;5069;49.306;8.636;2024-03-07T04:21:39;101115.47;;;4.56;100.00
10060;BME280;5069;49.306;8.636;2024-03-07T04:24:41;101110.28;;;4.66;100.00
10060;BME280;5069;49.306;8.636;2024-03-07T04:27:42;101106.78;;;4.61;100.00
10060;BME280;5069;49.306;8.636;2024-03-07T04:30:44;101105.03;;;4.63;100.00
10060;BME280;5069;49.306;8.636;2024-03-07T04:33:46;101111.13;;;4.69;100.00
10060;BME280;5069;49.306;8.636;2024-03-07T04:36:47;101113.78;;;4.72;100.00
10060;BME280;5069;49.306;8.636;2024-03-07T04:39:49;101110.31;;;4.78;100.00
10060;BME280;5069;49.306;8.636;2024-03-07T04:42:50;101097.22;;;4.76;100.00
10060;BME280;5069;49.306;8.636;2024-03-07T04:45:52;101110.28;;;4.69;100.00
10060;BME280;5069;49.306;8.636;2024-03-07T04:48:53;101113.72;;;4.62;100.00
10060;BME280;5069;49.306;8.636;2024-03-07T04:51:57;101103.25;;;4.45;100.00
10060;BME280;5069;49.306;8.636;2024-03-07T04:54:59;101106.75;;;4.42;100.00
10060;BME280;5069;49.306;8.636;2024-03-07T04:58:00;101109.38;;;4.44;100.00
10060;BME280;5069;49.306;8.636;2024-03-07T05:01:02;101109.38;;;4.48;100.00
10060;BME280;5069;49.306;8.636;2024-03-07T05:04:04;101109.38;;;4.54;100.00
10060;BME280;5069;49.306;8.636;2024-03-07T05:07:05;101113.72;;;4.57;100.00
10060;BME280;5069;49.306;8.636;2024-03-07T05:10:07;101110.25;;;4.53;100.00
10060;BME280;5069;49.306;8.636;2024-03-07T05:13:09;101111.13;;;4.58;100.00
10060;BME280;5069;49.306;8.636;2024-03-07T05:16:11;101105.91;;;4.58;100.00
10060;BME280;5069;49.306;8.636;2024-03-07T05:19:13;101110.25;;;4.56;100.00
10060;BME280;5069;49.306;8.636;2024-03-07T05:22:15;101115.47;;;4.52;100.00
10060;BME280;5069;49.306;8.636;2024-03-07T05:25:17;101105.00;;;4.41;100.00
10060;BME280;5069;49.306;8.636;2024-03-07T05:28:24;101113.72;;;4.43;100.00
10060;BME280;5069;49.306;8.636;2024-03-07T05:31:25;101103.25;;;4.40;100.00
10060;BME280;5069;49.306;8.636;2024-03-07T05:34:27;101095.41;;;4.40;100.00
10060;BME280;5069;49.306;8.636;2024-03-07T05:37:29;101102.34;;;4.34;100.00
10060;BME280;5069;49.306;8.636;2024-03-07T05:40:30;101103.25;;;4.37;100.00
10060;BME280;5069;49.306;8.636;2024-03-07T05:43:32;101105.84;;;4.37;100.00
10060;BME280;5069;49.306;8.636;2024-03-07T05:46:33;101105.00;;;4.41;100.00
10060;BME280;5069;49.306;8.636;2024-03-07T05:49:36;101108.47;;;4.40;100.00
10060;BME280;5069;49.306;8.636;2024-03-07T05:52:38;101110.19;;;4.35;100.00
10060;BME280;5069;49.306;8.636;2024-03-07T05:55:39;101101.50;;;4.36;100.00
10060;BME280;5069;49.306;8.636;2024-03-07T05:58:41;101096.28;;;4.36;100.00
10060;BME280;5069;49.306;8.636;2024-03-07T06:01:42;101103.25;;;4.37;100.00
10060;BME280;5069;49.306;8.636;2024-03-07T06:04:44;101111.94;;;4.39;100.00
10060;BME280;5069;49.306;8.636;2024-03-07T06:07:46;101107.59;;;4.40;100.00
10060;BME280;5069;49.306;8.636;2024-03-07T06:10:47;101112.78;;;4.34;100.00
10060;BME280;5069;49.306;8.636;2024-03-07T06:13:49;101108.47;;;4.37;100.00
10060;BME280;5069;49.306;8.636;2024-03-07T06:16:50;101107.59;;;4.38;100.00
10060;BME280;5069;49.306;8.636;2024-03-07T06:19:54;101112.81;;;4.37;100.00
10060;BME280;5069;49.306;8.636;2024-03-07T06:22:55;101102.38;;;4.37;100.00
10060;BME280;5069;49.306;8.636;2024-03-07T06:25:58;101104.13;;;4.41;100.00
10060;BME280;5069;49.306;8.636;2024-03-07T06:29:00;101109.31;;;4.39;100.00
10060;BME280;5069;49.306;8.636;2024-03-07T06:32:02;101105.00;;;4.41;100.00
10060;BME280;5069;49.306;8.636;2024-03-07T06:35:04;101109.34;;;4.42;100.00
10060;BME280;5069;49.306;8.636;2024-03-07T06:38:06;101098.03;;;4.46;100.00
10060;BME280;5069;49.306;8.636;2024-03-07T06:41:08;101093.69;;;4.44;100.00
10060;BME280;5069;49.306;8.636;2024-03-07T06:44:11;101095.44;;;4.48;100.00
10060;BME280;5069;49.306;8.636;2024-03-07T06:47:13;101107.63;;;4.58;100.00
10060;BME280;5069;49.306;8.636;2024-03-07T06:50:14;101098.94;;;4.57;100.00
10060;BME280;5069;49.306;8.636;2024-03-07T06:53:33;101098.06;;;4.58;100.00
10060;BME280;5069;49.306;8.636;2024-03-07T06:56:35;101099.81;;;4.69;100.00
10060;BME280;5069;49.306;8.636;2024-03-07T06:59:37;101105.06;;;4.72;100.00
10060;BME280;5069;49.306;8.636;2024-03-07T07:02:42;101099.84;;;4.78;100.00
10060;BME280;5069;49.306;8.636;2024-03-07T07:05:44;101103.31;;;4.86;100.00
10060;BME280;5069;49.306;8.636;2024-03-07T07:08:46;101099.84;;;4.93;100.00
10060;BME280;5069;49.306;8.636;2024-03-07T07:11:47;101098.13;;;4.95;100.00
10060;BME280;5069;49.306;8.636;2024-03-07T07:14:49;101103.34;;;5.04;100.00
10060;BME280;5069;49.306;8.636;2024-03-07T07:17:51;101099.84;;;5.08;100.00
10060;BME280;5069;49.306;8.636;2024-03-07T07:20:52;101093.75;;;5.15;100.00
10060;BME280;5069;49.306;8.636;2024-03-07T07:23:54;101092.88;;;5.13;100.00
10060;BME280;5069;49.306;8.636;2024-03-07T07:26:55;101098.13;;;5.22;100.00
10060;BME280;5069;49.306;8.636;2024-03-07T07:29:57;101092.88;;;5.34;100.00
10060;BME280;5069;49.306;8.636;2024-03-07T07:32:59;101095.47;;;5.48;100.00
10060;BME280;5069;49.306;8.636;2024-03-07T07:36:01;101093.75;;;5.46;100.00
10060;BME280;5069;49.306;8.636;2024-03-07T07:39:02;101087.63;;;5.50;100.00
10060;BME280;5069;49.306;8.636;2024-03-07T07:42:05;101088.47;;;5.59;100.00
10060;BME280;5069;49.306;8.636;2024-03-07T07:45:09;101087.53;;;5.77;100.00
10060;BME280;5069;49.306;8.636;2024-03-07T07:48:12;101091.00;;;5.82;100.00
10060;BME280;5069;49.306;8.636;2024-03-07T07:51:14;101083.16;;;5.94;100.00
10060;BME280;5069;49.306;8.636;2024-03-07T07:54:15;101079.66;;;6.00;100.00
10060;BME280;5069;49.306;8.636;2024-03-07T07:57:17;101077.91;;;5.99;100.00
10060;BME280;5069;49.306;8.636;2024-03-07T08:00:21;101075.28;;;6.03;100.00
10060;BME280;5069;49.306;8.636;2024-03-07T08:03:24;101079.53;;;6.21;100.00
10060;BME280;5069;49.306;8.636;2024-03-07T08:06:27;101075.25;;;6.14;100.00
10060;BME280;5069;49.306;8.636;2024-03-07T08:09:29;101079.63;;;6.04;100.00
10060;BME280;5069;49.306;8.636;2024-03-07T08:12:30;101071.69;;;6.22;100.00
10060;BME280;5069;49.306;8.636;2024-03-07T08:15:32;101073.41;;;6.30;100.00
10060;BME280;5069;49.306;8.636;2024-03-07T08:18:33;101080.31;;;6.43;100.00
10060;BME280;5069;49.306;8.636;2024-03-07T08:21:35;101062.84;;;6.48;100.00
10060;BME280;5069;49.306;8.636;2024-03-07T08:24:38;101064.53;;;6.50;100.00
10060;BME280;5069;49.306;8.636;2024-03-07T08:27:41;101066.28;;;6.51;100.00
10060;BME280;5069;49.306;8.636;2024-03-07T08:30:43;101059.09;;;6.79;100.00
10060;BME280;5069;49.306;8.636;2024-03-07T08:33:45;101064.88;;;7.18;100.00
10060;BME280;5069;49.306;8.636;2024-03-07T08:36:47;101053.72;;;6.99;100.00
10060;BME280;5069;49.306;8.636;2024-03-07T08:39:49;101064.16;;;7.03;100.00
10060;BME280;5069;49.306;8.636;2024-03-07T08:42:53;101060.72;;;6.98;100.00
10060;BME280;5069;49.306;8.636;2024-03-07T08:45:59;101058.75;;;7.22;100.00
10060;BME280;5069;49.306;8.636;2024-03-07T08:49:00;101051.66;;;7.30;99.44
10060;BME280;5069;49.306;8.636;2024-03-07T08:52:02;101049.34;;;6.99;95.88
10060;BME280;5069;49.306;8.636;2024-03-07T08:55:04;101048.53;;;6.91;96.33
10060;BME280;5069;49.306;8.636;2024-03-07T08:58:06;101043.94;;;7.16;100.00
10060;BME280;5069;49.306;8.636;2024-03-07T09:01:09;101041.22;;;7.24;97.72
10060;BME280;5069;49.306;8.636;2024-03-07T09:04:10;101046.53;;;7.21;97.75
10060;BME280;5069;49.306;8.636;2024-03-07T09:07:13;101039.38;;;7.35;100.00
10060;BME280;5069;49.306;8.636;2024-03-07T09:10:16;101041.00;;;7.50;96.93
10060;BME280;5069;49.306;8.636;2024-03-07T09:13:18;101033.88;;;7.59;95.90
10060;BME280;5069;49.306;8.636;2024-03-07T09:16:20;101036.34;;;7.74;92.22
10060;BME280;5069;49.306;8.636;2024-03-07T09:19:23;101034.28;;;7.98;90.22
10060;BME280;5069;49.306;8.636;2024-03-07T09:22:28;101031.50;;;8.10;90.24
10060;BME280;5069;49.306;8.636;2024-03-07T09:25:30;101031.56;;;8.07;91.51
10060;BME280;5069;49.306;8.636;2024-03-07T09:28:34;101028.56;;;7.65;92.65
10060;BME280;5069;49.306;8.636;2024-03-07T09:31:35;101025.00;;;7.69;98.05
10060;BME280;5069;49.306;8.636;2024-03-07T09:34:38;101026.69;;;7.76;95.56
10060;BME280;5069;49.306;8.636;2024-03-07T09:37:43;101028.19;;;7.97;99.60
10060;BME280;5069;49.306;8.636;2024-03-07T09:40:46;101015.50;;;8.31;96.58
10060;BME280;5069;49.306;8.636;2024-03-07T09:43:51;101023.31;;;8.36;93.07
10060;BME280;5069;49.306;8.636;2024-03-07T09:46:55;101028.31;;;8.51;93.31
10060;BME280;5069;49.306;8.636;2024-03-07T09:50:00;101021.13;;;8.62;91.81
10060;BME280;5069;49.306;8.636;2024-03-07T09:53:03;101013.28;;;8.60;87.72
10060;BME280;5069;49.306;8.636;2024-03-07T09:56:06;101013.44;;;8.51;91.15
10060;BME280;5069;49.306;8.636;2024-03-07T09:59:11;101016.13;;;8.47;90.61
10060;BME280;5069;49.306;8.636;2024-03-07T10:02:17;101022.19;;;8.50;93.59
10060;BME280;5069;49.306;8.636;2024-03-07T10:05:19;101013.34;;;8.57;95.64
10060;BME280;5069;49.306;8.636;2024-03-07T10:08:25;101009.91;;;8.52;91.01
10060;BME280;5069;49.306;8.636;2024-03-07T10:11:28;101010.69;;;8.59;94.99
10060;BME280;5069;49.306;8.636;2024-03-07T10:14:33;101012.38;;;8.61;94.79
10060;BME280;5069;49.306;8.636;2024-03-07T10:17:34;101007.06;;;8.66;90.59
10060;BME280;5069;49.306;8.636;2024-03-07T10:20:37;101011.75;;;8.47;91.15
10060;BME280;5069;49.306;8.636;2024-03-07T10:23:41;101002.38;;;8.85;89.86
10060;BME280;5069;49.306;8.636;2024-03-07T10:26:43;101005.94;;;8.81;90.11
10060;BME280;5069;49.306;8.636;2024-03-07T10:29:46;101001.16;;;9.04;88.45
10060;BME280;5069;49.306;8.636;2024-03-07T10:32:53;100992.19;;;9.16;86.98
10060;BME280;5069;49.306;8.636;2024-03-07T10:35:56;100986.22;;;9.06;86.44
10060;BME280;5069;49.306;8.636;2024-03-07T10:38:58;100985.84;;;9.27;81.81
10060;BME280;5069;49.306;8.636;2024-03-07T10:42:14;100983.03;;;9.35;81.75
10060;BME280;5069;49.306;8.636;2024-03-07T10:45:18;100973.03;;;9.53;84.79
10060;BME280;5069;49.306;8.636;2024-03-07T10:48:25;100969.00;;;9.79;79.99
10060;BME280;5069;49.306;8.636;2024-03-07T10:51:34;100965.72;;;9.68;75.51
10060;BME280;5069;49.306;8.636;2024-03-07T10:54:55;100962.97;;;9.29;76.80
10060;BME280;5069;49.306;8.636;2024-03-07T11:01:19;100954.16;;;9.75;79.67
10060;BME280;5069;49.306;8.636;2024-03-07T11:04:22;100955.72;;;9.85;77.51
10060;BME280;5069;49.306;8.636;2024-03-07T11:07:24;100943.44;;;9.42;77.21
10060;BME280;5069;49.306;8.636;2024-03-07T11:10:26;100947.19;;;9.72;80.99
10060;BME280;5069;49.306;8.636;2024-03-07T11:13:29;100937.13;;;9.91;77.14
10060;BME280;5069;49.306;8.636;2024-03-07T11:16:32;100937.59;;;9.70;75.12
10060;BME280;5069;49.306;8.636;2024-03-07T11:19:34;100933.81;;;10.21;77.90
10060;BME280;5069;49.306;8.636;2024-03-07T11:22:40;100917.22;;;10.19;73.23
10060;BME280;5069;49.306;8.636;2024-03-07T11:25:42;100918.41;;;10.42;73.66
10060;BME280;5069;49.306;8.636;2024-03-07T11:28:44;100913.63;;;10.57;71.04
10060;BME280;5069;49.306;8.636;2024-03-07T11:31:53;100908.97;;;10.67;71.52
10060;BME280;5069;49.306;8.636;2024-03-07T11:34:55;100898.28;;;10.73;71.67
10060;BME280;5069;49.306;8.636;2024-03-07T11:37:57;100894.59;;;10.78;71.14
10060;BME280;5069;49.306;8.636;2024-03-07T11:41:00;100892.00;;;11.09;70.13
10060;BME280;5069;49.306;8.636;2024-03-07T11:44:03;100890.50;;;11.32;70.42
10060;BME280;5069;49.306;8.636;2024-03-07T11:47:07;100889.34;;;11.40;68.68
10060;BME280;5069;49.306;8.636;2024-03-07T11:50:12;100887.75;;;11.35;68.14
10060;BME280;5069;49.306;8.636;2024-03-07T11:53:14;100884.72;;;11.48;67.86
10060;BME280;5069;49.306;8.636;2024-03-07T11:56:16;100888.63;;;11.65;66.42
10060;BME280;5069;49.306;8.636;2024-03-07T11:59:18;100889.81;;;11.54;66.96
10060;BME280;5069;49.306;8.636;2024-03-07T12:02:20;100879.09;;;11.30;66.86
10060;BME280;5069;49.306;8.636;2024-03-07T12:05:24;100882.56;;;11.32;68.71
10060;BME280;5069;49.306;8.636;2024-03-07T12:08:28;100870.16;;;11.35;68.72
10060;BME280;5069;49.306;8.636;2024-03-07T12:11:30;100872.09;;;11.29;68.81
10060;BME280;5069;49.306;8.636;2024-03-07T12:14:32;100860.84;;;11.51;69.99
10060;BME280;5069;49.306;8.636;2024-03-07T12:17:35;100856.09;;;11.64;67.03
10060;BME280;5069;49.306;8.636;2024-03-07T12:20:38;100852.22;;;11.46;69.66
10060;BME280;5069;49.306;8.636;2024-03-07T12:23:39;100849.94;;;11.34;68.89
10060;BME280;5069;49.306;8.636;2024-03-07T12:26:42;100851.06;;;11.27;71.40
10060;BME280;5069;49.306;8.636;2024-03-07T12:29:47;100846.06;;;11.16;73.94
10060;BME280;5069;49.306;8.636;2024-03-07T12:32:50;100845.31;;;11.11;74.47
10060;BME280;5069;49.306;8.636;2024-03-07T12:35:53;100835.94;;;11.01;76.90
10060;BME280;5069;49.306;8.636;2024-03-07T12:39:01;100832.97;;;11.13;77.79
10060;BME280;5069;49.306;8.636;2024-03-07T12:42:10;100837.16;;;11.21;79.72
10060;BME280;5069;49.306;8.636;2024-03-07T12:45:16;100832.78;;;11.19;75.33
10060;BME280;5069;49.306;8.636;2024-03-07T12:48:19;100829.78;;;11.02;76.48
10060;BME280;5069;49.306;8.636;2024-03-07T12:51:22;100826.22;;;11.03;77.77
10060;BME280;5069;49.306;8.636;2024-03-07T12:54:25;100826.31;;;11.00;79.44
10060;BME280;5069;49.306;8.636;2024-03-07T12:57:28;100822.88;;;10.98;78.92
10060;BME280;5069;49.306;8.636;2024-03-07T13:00:29;100822.72;;;11.03;78.92
10060;BME280;5069;49.306;8.636;2024-03-07T13:03:31;100822.56;;;11.09;78.54
10060;BME280;5069;49.306;8.636;2024-03-07T13:06:34;100819.25;;;11.01;79.66
10060;BME280;5069;49.306;8.636;2024-03-07T13:09:36;100817.69;;;10.94;80.06
10060;BME280;5069;49.306;8.636;2024-03-07T13:12:39;100815.28;;;10.86;83.00
10060;BME280;5069;49.306;8.636;2024-03-07T13:15:43;100815.47;;;10.80;83.96
10060;BME280;5069;49.306;8.636;2024-03-07T13:18:48;100819.75;;;10.83;85.32
10060;BME280;5069;49.306;8.636;2024-03-07T13:21:50;100827.81;;;10.78;85.81
10060;BME280;5069;49.306;8.636;2024-03-07T13:24:53;100822.00;;;10.65;86.62
10060;BME280;5069;49.306;8.636;2024-03-07T13:28:07;100814.31;;;10.58;89.61
10060;BME280;5069;49.306;8.636;2024-03-07T13:31:10;100815.09;;;10.61;89.86
10060;BME280;5069;49.306;8.636;2024-03-07T13:34:12;100813.28;;;10.63;88.55
10060;BME280;5069;49.306;8.636;2024-03-07T13:37:14;100819.59;;;10.58;88.54
10060;BME280;5069;49.306;8.636;2024-03-07T13:40:19;100814.38;;;10.55;88.85
10060;BME280;5069;49.306;8.636;2024-03-07T13:43:26;100816.38;;;10.47;90.22
10060;BME280;5069;49.306;8.636;2024-03-07T13:46:28;100807.47;;;10.51;90.01
10060;BME280;5069;49.306;8.636;2024-03-07T13:49:30;100805.00;;;10.45;91.37
10060;BME280;5069;49.306;8.636;2024-03-07T13:52:35;100796.03;;;10.52;92.21
10060;BME280;5069;49.306;8.636;2024-03-07T14:05:59;100798.34;;;10.64;90.45
10060;BME280;5069;49.306;8.636;2024-03-07T14:12:48;100796.34;;;10.72;90.82
10060;BME280;5069;49.306;8.636;2024-03-07T14:23:46;100789.28;;;10.72;91.02
10060;BME280;5069;49.306;8.636;2024-03-07T14:27:30;100791.78;;;10.77;91.60
10060;BME280;5069;49.306;8.636;2024-03-07T14:30:54;100795.13;;;10.84;91.53
10060;BME280;5069;49.306;8.636;2024-03-07T14:34:10;100787.63;;;10.70;88.23
10060;BME280;5069;49.306;8.636;2024-03-07T14:37:25;100780.69;;;10.66;89.97
10060;BME280;5069;49.306;8.636;2024-03-07T14:40:27;100778.19;;;10.61;89.51
10060;BME280;5069;49.306;8.636;2024-03-07T14:43:28;100776.34;;;10.65;90.91
10060;BME280;5069;49.306;8.636;2024-03-07T14:46:30;100771.66;;;10.74;89.49
10060;BME280;5069;49.306;8.636;2024-03-07T14:49:31;100771.81;;;10.70;90.40
10060;BME280;5069;49.306;8.636;2024-03-07T14:52:34;100770.13;;;10.66;90.08
10060;BME280;5069;49.306;8.636;2024-03-07T14:55:37;100768.44;;;10.65;89.40
10060;BME280;5069;49.306;8.636;2024-03-07T14:58:40;100765.13;;;10.57;88.98
10060;BME280;5069;49.306;8.636;2024-03-07T15:01:42;100758.22;;;10.53;89.11
10060;BME280;5069;49.306;8.636;2024-03-07T15:04:44;100754.66;;;10.54;89.48
10060;BME280;5069;49.306;8.636;2024-03-07T15:07:46;100751.28;;;10.49;90.71
10060;BME280;5069;49.306;8.636;2024-03-07T15:11:16;100747.69;;;10.53;89.43
10060;BME280;5069;49.306;8.636;2024-03-07T15:14:22;100745.25;;;10.45;86.39
10060;BME280;5069;49.306;8.636;2024-03-07T15:17:38;100745.94;;;10.52;90.11
10060;BME280;5069;49.306;8.636;2024-03-07T15:20:39;100748.44;;;10.56;90.79
10060;BME280;5069;49.306;8.636;2024-03-07T15:23:43;100745.25;;;10.45;92.15
10060;BME280;5069;49.306;8.636;2024-03-07T15:26:46;100742.00;;;10.35;89.04
10060;BME280;5069;49.306;8.636;2024-03-07T15:29:49;100742.91;;;10.34;91.18
10060;BME280;5069;49.306;8.636;2024-03-07T15:32:51;100748.03;;;10.39;92.00
10060;BME280;5069;49.306;8.636;2024-03-07T15:35:53;100749.06;;;10.33;88.83
10060;BME280;5069;49.306;8.636;2024-03-07T15:38:54;100735.13;;;10.30;87.57
10060;BME280;5069;49.306;8.636;2024-03-07T15:41:58;100739.72;;;10.22;88.61
10060;BME280;5069;49.306;8.636;2024-03-07T15:45:01;100734.44;;;10.23;90.95
10060;BME280;5069;49.306;8.636;2024-03-07T15:48:03;100739.44;;;10.32;90.33
10060;BME280;5069;49.306;8.636;2024-03-07T15:51:12;100726.59;;;10.20;91.98
10060;BME280;5069;49.306;8.636;2024-03-07T15:54:13;100731.00;;;10.20;93.80
10060;BME280;5069;49.306;8.636;2024-03-07T15:57:19;100728.41;;;10.18;93.84
10060;BME280;5069;49.306;8.636;2024-03-07T16:00:24;100730.09;;;10.21;95.59
10060;BME280;5069;49.306;8.636;2024-03-07T16:03:26;100723.88;;;10.23;96.11
10060;BME280;5069;49.306;8.636;2024-03-07T16:06:29;100719.81;;;10.10;96.48
10060;BME280;5069;49.306;8.636;2024-03-07T16:09:31;100724.03;;;10.19;93.57
10060;BME280;5069;49.306;8.636;2024-03-07T16:12:32;100716.97;;;10.19;95.29
10060;BME280;5069;49.306;8.636;2024-03-07T16:15:36;100721.72;;;10.38;91.76
10060;BME280;5069;49.306;8.636;2024-03-07T16:18:43;100718.81;;;10.14;93.26
10060;BME280;5069;49.306;8.636;2024-03-07T16:21:45;100716.00;;;10.22;95.77
10060;BME280;5069;49.306;8.636;2024-03-07T16:24:46;100711.44;;;10.28;94.94
10060;BME280;5069;49.306;8.636;2024-03-07T16:27:49;100710.31;;;10.37;92.49
10060;BME280;5069;49.306;8.636;2024-03-07T16:30:51;100716.25;;;10.45;92.58
10060;BME280;5069;49.306;8.636;2024-03-07T16:33:53;100710.84;;;10.50;89.55
10060;BME280;5069;49.306;8.636;2024-03-07T16:36:54;100715.31;;;10.48;89.60